createdAt,value
2023-04-01T00:00:53.177Z,5.20
2023-04-01T00:03:57.505Z,4.20
2023-04-01T00:07:02.737Z,4.55
2023-04-01T00:10:08.123Z,4.60
2023-04-01T00:13:11.526Z,4.30
2023-04-01T00:19:22.719Z,4.10
2023-04-01T00:22:27.339Z,3.80
2023-04-01T00:25:31.188Z,3.47
2023-04-01T00:28:37.069Z,3.80
2023-04-01T00:31:40.577Z,4.00
2023-04-01T00:34:45.436Z,4.53
2023-04-01T00:37:49.154Z,4.63
2023-04-01T00:40:59.751Z,4.03
2023-04-01T00:44:23.409Z,4.53
2023-04-01T00:47:28.622Z,4.60
2023-04-01T00:50:34.372Z,5.00
2023-04-01T00:53:42.728Z,4.20
2023-04-01T00:56:56.841Z,6.13
2023-04-01T01:00:00.892Z,4.82
2023-04-01T01:03:04.459Z,5.20
2023-04-01T01:06:26.545Z,5.23
2023-04-01T01:09:29.905Z,5.85
2023-04-01T01:12:46.200Z,5.35
2023-04-01T01:16:21.539Z,7.72
2023-04-01T01:19:51.305Z,8.20
2023-04-01T01:23:18.681Z,7.23
2023-04-01T01:26:52.640Z,7.05
2023-04-01T01:30:44.224Z,6.45
2023-04-01T01:33:58.780Z,4.85
2023-04-01T01:37:08.605Z,6.20
2023-04-01T01:40:16.499Z,4.63
2023-04-01T01:43:23.846Z,4.53
2023-04-01T01:46:29.451Z,4.40
2023-04-01T01:49:35.034Z,4.78
2023-04-01T01:52:38.497Z,5.30
2023-04-01T01:55:44.996Z,4.63
2023-04-01T01:58:53.657Z,4.90
2023-04-01T02:02:00.080Z,5.35
2023-04-01T02:05:05.853Z,5.30
2023-04-01T02:08:23.880Z,5.93
2023-04-01T02:11:33.435Z,4.80
2023-04-01T02:14:55.822Z,4.97
2023-04-01T02:17:59.763Z,5.20
2023-04-01T02:21:06.061Z,5.68
2023-04-01T02:24:14.503Z,5.73
2023-04-01T02:27:18.175Z,6.93
2023-04-01T02:30:22.009Z,8.75
2023-04-01T02:33:26.161Z,9.13
2023-04-01T02:36:29.819Z,8.95
2023-04-01T02:39:33.250Z,6.67
2023-04-01T02:42:36.822Z,6.23
2023-04-01T02:45:41.181Z,6.00
2023-04-01T02:48:44.841Z,6.38
2023-04-01T02:51:48.317Z,7.07
2023-04-01T02:54:51.933Z,8.40
2023-04-01T02:57:55.412Z,10.33
2023-04-01T03:00:58.869Z,7.55
2023-04-01T03:04:02.626Z,9.20
2023-04-01T03:07:05.964Z,12.48
2023-04-01T03:10:10.077Z,15.00
2023-04-01T03:13:13.388Z,21.90
2023-04-01T03:16:17.167Z,20.30
2023-04-01T03:19:20.678Z,16.80
2023-04-01T03:22:24.217Z,14.95
2023-04-01T03:25:29.685Z,13.07
2023-04-01T03:28:33.534Z,11.60
2023-04-01T03:31:36.967Z,11.50
2023-04-01T03:34:40.773Z,9.90
2023-04-01T03:37:44.196Z,8.25
2023-04-01T03:40:47.718Z,9.17
2023-04-01T03:43:51.122Z,11.60
2023-04-01T03:46:54.597Z,8.88
2023-04-01T03:49:57.965Z,6.68
2023-04-01T03:53:02.634Z,8.05
2023-04-01T03:56:07.971Z,8.70
2023-04-01T03:59:13.297Z,8.70
2023-04-01T04:02:17.093Z,8.50
2023-04-01T04:05:20.688Z,7.18
2023-04-01T04:08:24.451Z,6.97
2023-04-01T04:11:28.160Z,7.13
2023-04-01T04:14:31.570Z,6.83
2023-04-01T04:17:35.168Z,7.50
2023-04-01T04:20:44.228Z,7.63
2023-04-01T04:23:48.086Z,6.70
2023-04-01T04:26:53.846Z,6.00
2023-04-01T04:29:57.280Z,6.60
2023-04-01T04:33:01.278Z,6.40
2023-04-01T04:36:05.652Z,5.75
2023-04-01T04:39:09.530Z,6.07
2023-04-01T04:42:15.425Z,5.97
2023-04-01T04:45:19.069Z,5.63
2023-04-01T04:48:31.328Z,6.75
2023-04-01T04:51:36.881Z,5.45
2023-04-01T04:54:40.504Z,6.35
2023-04-01T04:57:43.900Z,8.27
2023-04-01T05:00:47.912Z,6.80
2023-04-01T05:04:05.212Z,6.00
2023-04-01T05:07:08.626Z,5.45
2023-04-01T05:10:12.149Z,5.32
2023-04-01T05:13:15.951Z,5.90
2023-04-01T05:16:23.336Z,5.67
2023-04-01T05:19:27.235Z,6.10
2023-04-01T05:22:30.755Z,6.25
2023-04-01T05:25:34.502Z,6.05
2023-04-01T05:28:39.320Z,5.60
2023-04-01T05:31:42.997Z,5.53
2023-04-01T05:34:46.490Z,5.78
2023-04-01T05:37:49.969Z,5.50
2023-04-01T05:40:59.678Z,5.13
2023-04-01T05:44:03.118Z,6.50
2023-04-01T05:47:29.560Z,7.37
2023-04-01T05:50:33.128Z,7.93
2023-04-01T05:53:36.984Z,5.43
2023-04-01T05:56:40.387Z,5.68
2023-04-01T05:59:43.894Z,7.13
2023-04-01T06:02:48.667Z,6.43
2023-04-01T06:05:52.135Z,6.80
2023-04-01T06:08:58.618Z,6.38
2023-04-01T06:12:10.988Z,7.57
2023-04-01T06:15:36.769Z,7.20
2023-04-01T06:18:51.306Z,6.17
2023-04-01T06:22:23.529Z,5.80
2023-04-01T06:25:41.974Z,4.45
2023-04-01T06:28:48.382Z,4.00
2023-04-01T06:32:03.440Z,4.57
2023-04-01T06:35:22.022Z,5.23
2023-04-01T06:38:59.337Z,4.53
2023-04-01T06:42:03.976Z,5.78
2023-04-01T06:45:44.026Z,5.60
2023-04-01T06:49:24.618Z,6.03
2023-04-01T06:53:15.616Z,5.60
2023-04-01T06:56:40.021Z,4.60
2023-04-01T06:59:51.953Z,4.95
2023-04-01T07:03:21.530Z,4.45
2023-04-01T07:06:32.912Z,4.60
2023-04-01T07:09:44.564Z,4.40
2023-04-01T07:13:11.901Z,4.55
2023-04-01T07:16:39.658Z,4.65
2023-04-01T07:19:51.844Z,4.50
2023-04-01T07:23:01.423Z,4.17
2023-04-01T07:26:24.142Z,4.00
2023-04-01T07:29:45.808Z,3.80
2023-04-01T07:32:56.694Z,3.50
2023-04-01T07:36:15.609Z,4.13
2023-04-01T07:39:36.769Z,3.73
2023-04-01T07:43:23.204Z,3.70
2023-04-01T07:46:42.397Z,3.80
2023-04-01T07:50:13.770Z,3.50
2023-04-01T07:53:17.553Z,3.53
2023-04-01T07:56:44.216Z,3.80
2023-04-01T07:59:57.442Z,3.57
2023-04-01T08:03:53.226Z,3.70
2023-04-01T08:07:26.590Z,4.05
2023-04-01T08:10:56.758Z,4.00
2023-04-01T08:14:58.732Z,4.10
2023-04-01T08:18:40.497Z,3.53
2023-04-01T08:21:45.005Z,3.33
2023-04-01T08:24:50.860Z,3.80
2023-04-01T08:28:16.732Z,3.60
2023-04-01T08:31:39.857Z,3.63
2023-04-01T08:34:48.865Z,3.27
2023-04-01T08:38:26.214Z,3.20
2023-04-01T08:41:50.867Z,3.13
2023-04-01T08:45:30.291Z,3.80
2023-04-01T08:48:58.749Z,3.37
2023-04-01T08:52:21.854Z,3.90
2023-04-01T08:56:03.664Z,3.63
2023-04-01T08:59:29.093Z,3.53
2023-04-01T09:02:55.140Z,4.18
2023-04-01T09:06:18.574Z,4.03
2023-04-01T09:09:33.963Z,3.63
2023-04-01T09:12:56.759Z,3.80
2023-04-01T09:16:26.182Z,4.15
2023-04-01T09:19:29.544Z,3.90
2023-04-01T09:23:15.927Z,4.33
2023-04-01T09:26:43.580Z,3.83
2023-04-01T09:30:06.662Z,3.40
2023-04-01T09:33:13.262Z,4.22
2023-04-01T09:36:38.303Z,3.90
2023-04-01T09:40:07.081Z,3.80
2023-04-01T09:43:45.528Z,3.70
2023-04-01T09:47:12.694Z,4.00
2023-04-01T09:50:37.850Z,4.10
2023-04-01T09:54:02.949Z,4.22
2023-04-01T09:57:40.524Z,3.77
2023-04-01T10:01:06.685Z,4.03
2023-04-01T10:04:58.136Z,3.63
2023-04-01T10:08:13.512Z,3.60
2023-04-01T10:11:46.840Z,3.47
2023-04-01T10:15:08.850Z,3.83
2023-04-01T10:18:17.868Z,3.70
2023-04-01T10:21:49.115Z,4.00
2023-04-01T10:24:52.551Z,3.88
2023-04-01T10:28:37.062Z,3.78
2023-04-01T10:32:07.433Z,3.73
2023-04-01T10:35:48.807Z,3.50
2023-04-01T10:39:11.876Z,4.60
2023-04-01T10:42:40.351Z,3.90
2023-04-01T10:46:27.068Z,6.80
2023-04-01T10:49:48.978Z,4.80
2023-04-01T10:53:33.689Z,6.90
2023-04-01T10:57:33.143Z,5.93
2023-04-01T11:01:06.168Z,5.60
2023-04-01T11:04:54.898Z,9.98
2023-04-01T11:08:46.156Z,4.90
2023-04-01T11:12:05.705Z,4.43
2023-04-01T11:15:47.330Z,4.20
2023-04-01T11:19:18.960Z,4.18
2023-04-01T11:22:41.497Z,4.85
2023-04-01T11:25:58.776Z,4.80
2023-04-01T11:29:58.782Z,4.80
2023-04-01T11:33:20.084Z,5.32
2023-04-01T11:36:30.143Z,4.65
2023-04-01T11:39:48.276Z,4.78
2023-04-01T11:43:46.882Z,4.37
2023-04-01T11:47:36.515Z,21.73
2023-04-01T11:50:39.962Z,15.18
2023-04-01T11:54:06.460Z,21.63
2023-04-01T11:57:39.345Z,6.35
2023-04-01T12:01:10.831Z,7.67
2023-04-01T12:04:14.509Z,5.33
2023-04-01T12:07:54.205Z,6.97
2023-04-01T12:11:09.809Z,6.75
2023-04-01T12:14:33.946Z,7.15
2023-04-01T12:18:21.780Z,6.00
2023-04-01T12:21:33.299Z,4.57
2023-04-01T12:24:50.763Z,5.40
2023-04-01T12:28:12.801Z,4.95
2023-04-01T12:31:37.918Z,6.00
2023-04-01T12:35:19.924Z,4.73
2023-04-01T12:38:29.274Z,4.37
2023-04-01T12:41:35.756Z,5.38
2023-04-01T12:44:46.016Z,5.00
2023-04-01T12:48:02.479Z,4.80
2023-04-01T12:51:24.034Z,4.10
2023-04-01T12:54:50.683Z,4.10
2023-04-01T12:58:29.176Z,3.90
2023-04-01T13:01:56.357Z,4.50
2023-04-01T13:05:38.869Z,3.90
2023-04-01T13:08:50.478Z,4.20
2023-04-01T13:12:05.892Z,56.47
2023-04-01T13:15:32.468Z,20.92
2023-04-01T13:18:56.644Z,36.13
2023-04-01T13:22:25.463Z,22.05
2023-04-01T13:26:13.862Z,36.63
2023-04-01T13:29:21.098Z,7.00
2023-04-01T13:32:43.994Z,3.92
2023-04-01T13:36:00.003Z,4.50
2023-04-01T13:39:12.237Z,3.60
2023-04-01T13:42:36.486Z,3.03
2023-04-01T13:45:56.245Z,2.60
2023-04-01T13:49:13.546Z,3.08
2023-04-01T13:52:21.169Z,2.80
2023-04-01T13:55:29.801Z,3.70
2023-04-01T13:58:52.272Z,3.27
2023-04-01T14:01:55.772Z,2.60
2023-04-01T14:05:41.930Z,3.35
2023-04-01T14:08:57.087Z,3.10
2023-04-01T14:12:31.148Z,2.88
2023-04-01T14:16:16.250Z,2.90
2023-04-01T14:19:45.093Z,3.20
2023-04-01T14:23:07.545Z,5.55
2023-04-01T14:26:44.038Z,29.30
2023-04-01T14:29:50.508Z,15.45
2023-04-01T14:33:22.332Z,12.00
2023-04-01T14:37:16.848Z,4.27
2023-04-01T14:40:39.623Z,7.60
2023-04-01T14:44:04.987Z,6.68
2023-04-01T14:47:32.030Z,5.65
2023-04-01T14:50:57.029Z,6.47
2023-04-01T14:54:39.830Z,54.53
2023-04-01T14:57:43.258Z,11.50
2023-04-01T15:01:30.968Z,5.15
2023-04-01T15:04:59.833Z,8.20
2023-04-01T15:08:04.994Z,6.20
2023-04-01T15:11:24.551Z,6.80
2023-04-01T15:14:56.950Z,7.65
2023-04-01T15:18:13.545Z,6.10
2023-04-01T15:22:01.390Z,8.68
2023-04-01T15:25:22.643Z,8.20
2023-04-01T15:28:49.306Z,6.00
2023-04-01T15:32:01.706Z,9.65
2023-04-01T15:35:24.530Z,7.60
2023-04-01T15:38:56.767Z,6.50
2023-04-01T15:42:19.513Z,8.90
2023-04-01T15:45:48.699Z,6.97
2023-04-01T15:49:25.900Z,12.35
2023-04-01T15:52:50.181Z,9.18
2023-04-01T15:56:34.691Z,7.53
2023-04-01T16:00:08.485Z,9.20
2023-04-01T16:03:21.431Z,5.37
2023-04-01T16:06:36.534Z,5.43
2023-04-01T16:10:01.490Z,6.57
2023-04-01T16:13:46.453Z,7.25
2023-04-01T16:16:50.029Z,9.93
2023-04-01T16:20:11.221Z,7.70
2023-04-01T16:23:50.349Z,9.10
2023-04-01T16:27:11.688Z,10.15
2023-04-01T16:30:36.818Z,10.48
2023-04-01T16:33:56.497Z,11.10
2023-04-01T16:37:13.802Z,10.53
2023-04-01T16:40:39.155Z,21.92
2023-04-01T16:43:55.716Z,28.58
2023-04-01T16:47:09.645Z,15.20
2023-04-01T16:50:26.218Z,12.13
2023-04-01T16:53:44.876Z,11.70
2023-04-01T16:57:10.180Z,15.02
2023-04-01T17:00:42.334Z,14.40
2023-04-01T17:03:50.597Z,10.02
2023-04-01T17:07:00.502Z,7.30
2023-04-01T17:10:40.377Z,6.70
2023-04-01T17:13:49.888Z,30.52
2023-04-01T17:16:57.847Z,34.05
2023-04-01T17:20:13.899Z,27.25
2023-04-01T17:23:24.432Z,24.57
2023-04-01T17:27:21.718Z,20.23
2023-04-01T17:30:30.231Z,23.77
2023-04-01T17:34:16.878Z,26.70
2023-04-01T17:37:51.905Z,21.00
2023-04-01T17:41:07.258Z,20.70
2023-04-01T17:44:29.397Z,16.67
2023-04-01T17:48:01.018Z,17.02
2023-04-01T17:51:32.415Z,65.00
2023-04-01T17:54:53.067Z,30.10
2023-04-01T17:58:04.313Z,28.33
2023-04-01T18:01:26.301Z,25.83
2023-04-01T18:05:02.266Z,24.92
2023-04-01T18:08:06.944Z,30.83
2023-04-01T18:11:22.995Z,28.58
2023-04-01T18:14:55.541Z,54.97
2023-04-01T18:18:11.013Z,59.60
2023-04-01T18:21:32.462Z,52.53
2023-04-01T18:25:01.586Z,41.38
2023-04-01T18:28:14.060Z,54.20
2023-04-01T18:31:21.779Z,103.97
2023-04-01T18:35:12.957Z,100.17
2023-04-01T18:38:19.928Z,57.65
2023-04-01T18:42:02.176Z,37.33
2023-04-01T18:45:22.027Z,44.85
2023-04-01T18:48:56.396Z,46.00
2023-04-01T18:52:12.954Z,35.27
2023-04-01T18:55:23.928Z,47.05
2023-04-01T18:58:55.992Z,39.28
2023-04-01T19:02:35.534Z,38.90
2023-04-01T19:05:43.296Z,50.47
2023-04-01T19:08:47.435Z,40.60
2023-04-01T19:12:03.407Z,41.28
2023-04-01T19:15:28.408Z,40.17
2023-04-01T19:18:41.032Z,37.67
2023-04-01T19:21:56.720Z,39.83
2023-04-01T19:25:22.875Z,46.37
2023-04-01T19:28:51.887Z,56.83
2023-04-01T19:32:10.484Z,75.95
2023-04-01T19:35:35.029Z,52.88
2023-04-01T19:38:58.176Z,44.40
2023-04-01T19:42:11.327Z,43.67
2023-04-01T19:45:27.371Z,35.17
2023-04-01T19:48:52.537Z,44.78
2023-04-01T19:52:37.452Z,36.38
2023-04-01T19:56:02.785Z,35.43
2023-04-01T19:59:11.909Z,33.00
2023-04-01T20:02:32.666Z,33.15
2023-04-01T20:05:57.101Z,33.20
2023-04-01T20:09:30.528Z,31.40
2023-04-01T20:12:46.232Z,29.50
2023-04-01T20:16:02.362Z,30.90
2023-04-01T20:19:08.388Z,28.90
2023-04-01T20:22:46.712Z,30.05
2023-04-01T20:26:13.833Z,31.67
2023-04-01T20:29:17.132Z,45.20
2023-04-01T20:32:57.571Z,41.93
2023-04-01T20:36:37.280Z,33.72
2023-04-01T20:40:09.210Z,34.33
2023-04-01T20:43:50.104Z,33.55
2023-04-01T20:47:15.177Z,34.90
2023-04-01T20:50:57.716Z,34.57
2023-04-01T20:54:52.316Z,33.00
2023-04-01T20:58:24.902Z,34.10
2023-04-01T21:01:52.442Z,33.35
2023-04-01T21:05:28.364Z,36.03
2023-04-01T21:09:07.562Z,31.60
2023-04-01T21:12:14.241Z,31.60
2023-04-01T21:15:46.570Z,32.17
2023-04-01T21:19:02.486Z,33.22
2023-04-01T21:22:17.614Z,28.87
2023-04-01T21:25:42.491Z,22.83
2023-04-01T21:29:11.812Z,24.83
2023-04-01T21:32:29.138Z,26.27
2023-04-01T21:35:51.294Z,25.38
2023-04-01T21:39:19.552Z,24.40
2023-04-01T21:42:42.627Z,26.87
2023-04-01T21:46:05.460Z,23.23
2023-04-01T21:49:45.421Z,30.38
2023-04-01T21:53:08.511Z,31.63
2023-04-01T21:56:39.487Z,34.90
2023-04-01T22:00:12.482Z,32.30
2023-04-01T22:03:51.872Z,28.65
2023-04-01T22:07:07.645Z,27.98
2023-04-01T22:10:42.503Z,27.08
2023-04-01T22:13:50.577Z,27.20
2023-04-01T22:17:30.569Z,27.50
2023-04-01T22:20:46.190Z,31.73
2023-04-01T22:24:07.232Z,35.00
2023-04-01T22:27:18.731Z,32.13
2023-04-01T22:30:25.607Z,31.33
2023-04-01T22:33:40.989Z,30.57
2023-04-01T22:37:05.915Z,28.60
2023-04-01T22:40:25.137Z,30.40
2023-04-01T22:43:45.480Z,31.85
2023-04-01T22:47:06.541Z,36.90
2023-04-01T22:50:25.729Z,35.70
2023-04-01T22:54:03.731Z,34.10
2023-04-01T22:57:30.403Z,36.03
2023-04-01T23:00:55.251Z,36.05
2023-04-01T23:04:01.311Z,33.60
2023-04-01T23:07:37.953Z,31.87
2023-04-01T23:10:53.845Z,29.58
2023-04-01T23:14:24.517Z,31.58
2023-04-01T23:17:31.128Z,28.63
2023-04-01T23:20:54.128Z,27.57
2023-04-01T23:24:34.127Z,28.47
2023-04-01T23:28:14.763Z,48.17
2023-04-01T23:31:32.941Z,48.25
2023-04-01T23:34:37.303Z,29.95
2023-04-01T23:37:40.851Z,32.60
2023-04-01T23:40:44.511Z,34.87
2023-04-01T23:43:57.165Z,31.38
2023-04-01T23:47:02.096Z,30.17
2023-04-01T23:50:17.683Z,32.03
2023-04-01T23:53:25.726Z,31.93
2023-04-01T23:57:06.860Z,32.03
